Nearby METAR Reports

 

KOXC - Oxford/Waterbury, Connecticut, USA
Distance from station: SE 8mi, 12km
Updated: Thu, 15-Nov-2018 6:07pm EST
Snow, Freezing, Fog, Overcast
Snow, Freezing, Fog, Overcast
 Wind from ENE
Wind: ENE 17 mph , 28 km/h, Gust: 23 mph , 37 km/h
Temperature: 23°F , -5°C
Wind Chill: 9°F , -13°C
Dew Point: 21°F , -6°C
Humidity: 93%
Barometer: 30.27 inHg , 1025.1 hPa
Summary: Snow, Freezing, Fog
Clouds: Overcast
Visibility: 1/2 mile , 0.8 km
Cloud details: Overcast 500 ft
2018/11/15 23:07 KOXC 152307Z 06015G20KT 1/2SM SN FZFG OVC005 M05/M06 A3027 RMK AO2 CIG 004V008 P0000
KDXR - Danbury, Connecticut, USA
Distance from station: SW 19mi, 30km
Updated: Thu, 15-Nov-2018 5:53pm EST
Snow, Freezing, Fog, Overcast
Snow, Freezing, Fog, Overcast
 Wind from NE
Wind: NE 7 mph , 11 km/h
Temperature: 25°F , -4°C
Wind Chill: 17°F , -8°C
Dew Point: 21°F , -6°C
Humidity: 86%
Barometer: 30.29 inHg , 1025.7 hPa
Summary: Snow, Freezing, Fog
Clouds: Overcast
Visibility: 1/2 mile , 0.8 km
Cloud details: Overcast 300 ft
2018/11/15 22:53 KDXR 152253Z 05006KT 1/2SM SN FZFG VV003 M04/M06 A3029 RMK AO2 SLP262 P0009 T10441056
 
KMMK - Meriden, Connecticut, USA
Distance from station: E 20mi, 33km
Updated: Thu, 15-Nov-2018 6:31pm EST
Snow, Freezing, Fog, Overcast
Snow, Freezing, Fog, Overcast
 Wind from N
Wind: N 7 mph , 11 km/h
Temperature: 27°F , -3°C
Wind Chill: 19°F , -7°C
Dew Point: 25°F , -4°C
Humidity: 93%
Barometer: 30.30 inHg , 1026.1 hPa
Summary: Snow, Freezing, Fog
Clouds: Overcast
Visibility: 1/2 mile , 0.8 km
Cloud details: Overcast 700 ft
2018/11/15 23:31 KMMK 152331Z AUTO 01006KT 1/2SM SN FZFG VV007 M03/M04 A3030 RMK AO2 P0007 T10281044
KBDR - Bridgeport, Connecticut, USA
Distance from station: S 27mi, 44km
Updated: Thu, 15-Nov-2018 6:29pm EST
Light snow, Mist, Overcast
Light snow, Mist, Overcast
 Wind from NE
Wind: NE 14 mph , 22 km/h
Temperature: 28°F , -2°C
Wind Chill: 17°F , -8°C
Dew Point: 27°F , -3°C
Humidity: 93%
Barometer: 30.27 inHg , 1025.1 hPa
Summary: Light snow, Mist
Clouds: Overcast
Visibility: 2 miles , 3 km
Cloud details: Overcast 1100 ft
2018/11/15 23:29 KBDR 152329Z 05012KT 2SM -SN BR OVC011 M02/M03 A3027 RMK AO2 P0028 T10171033
 
KHVN - New Haven/Tweed, Connecticut, USA
Distance from station: SE 27mi, 44km
Updated: Thu, 15-Nov-2018 6:39pm EST
Light snow, Mist, Overcast
Light snow, Mist, Overcast
 Wind from NNE
Wind: NNE 10 mph , 17 km/h
Temperature: 30°F , -1°C
Wind Chill: 21°F , -6°C
Dew Point: 28°F , -2°C
Humidity: 93%
Barometer: 30.27 inHg , 1025.1 hPa
Summary: Light snow, Mist
Clouds: Overcast
Visibility: 1 mile , 2 km
Cloud details: Few Clouds 400 ft
Overcast 1000 ft
2018/11/15 23:39 KHVN 152339Z 02009KT 1SM R02/4500VP6000FT -SN BR FEW004 OVC010 M01/M02 A3027 RMK AO2 P0010 T10111022
KHFD - Hartford/Brainar, Connecticut, USA
Distance from station: ENE 32mi, 52km
Updated: Thu, 15-Nov-2018 5:53pm EST
Snow, Freezing, Fog, Overcast
Snow, Freezing, Fog, Overcast
 Wind from N
Wind: N 8 mph , 13 km/h
Temperature: 27°F , -3°C
Wind Chill: 19°F , -7°C
Dew Point: 25°F , -4°C
Humidity: 93%
Barometer: 30.36 inHg , 1028.1 hPa
Summary: Snow, Freezing, Fog
Clouds: Overcast
Visibility: 1/2 mile , 0.8 km
Cloud details: Overcast 800 ft
2018/11/15 22:53 KHFD 152253Z 01007KT 1/2SM SN FZFG VV008 M03/M04 A3036 RMK AO2 SNB11 SLP281 P0002 T10281039
 
KPOU - Poughkeepsie, New York, USA
Distance from station: W 35mi, 56km
Updated: Thu, 15-Nov-2018 6:32pm EST
Heavy snow, Freezing, Fog, Overcast
Heavy snow, Freezing, Fog, Overcast
 Wind from N
Wind: N 5 mph , 7 km/h
Temperature: 27°F , -3°C
Wind Chill: 21°F , -6°C
Dew Point: 23°F , -5°C
Humidity: 86%
Barometer: 30.28 inHg , 1025.4 hPa
Summary: Heavy snow, Freezing, Fog
Clouds: Overcast
Visibility: 1/4 mile , 0.4 km
Cloud details: Overcast 600 ft
2018/11/15 23:32 KPOU 152332Z 35004KT 1/4SM +SN FZFG VV006 M03/M05 A3028 RMK AO2 P0007 T10331050
KBDL - Windsor Locks, Connecticut, USA
Distance from station: NE 38mi, 62km
Updated: Thu, 15-Nov-2018 6:13pm EST
Light snow, Mist, Overcast
Light snow, Mist, Overcast
 Wind from N
Wind: N 7 mph , 11 km/h
Temperature: 27°F , -3°C
Wind Chill: 19°F , -7°C
Dew Point: 23°F , -5°C
Humidity: 86%
Barometer: 30.36 inHg , 1028.1 hPa
Summary: Light snow, Mist
Clouds: Overcast
Visibility: 3/4 mile , 1.2 km
Cloud details: Mostly cloudy 900 ft
Overcast 2000 ft
2018/11/15 23:13 KBDL 152313Z 01006KT 3/4SM -SN BR BKN009 OVC020 M03/M05 A3036 RMK AO2 TWR VIS 1 P0002 T10331050 RVRNO
 
KSNC - Chester, Connecticut, USA
Distance from station: ESE 39mi, 63km
Updated: Thu, 15-Nov-2018 6:35pm EST
Light snow, Overcast
Light snow, Overcast
 Wind from NE
Wind: NE 10 mph , 17 km/h, Gust: 18 mph , 30 km/h
Temperature: 28°F , -2°C
Wind Chill: 19°F , -7°C
Dew Point: 27°F , -3°C
Humidity: 93%
Barometer: 30.26 inHg , 1024.7 hPa
Summary: Light Snow
Clouds: Overcast
Visibility: 3/4 mile , 1.2 km
Cloud details: Overcast 100 ft
2018/11/15 23:35 KSNC 152335Z AUTO 05009G16KT 3/4SM -SN OVC001 M02/M03 A3026 RMK AO2
KHPN - White Plains, New York, USA
Distance from station: SW 42mi, 67km
Updated: Thu, 15-Nov-2018 5:56pm EST
Light snow, Mist, Overcast
Light snow, Mist, Overcast
 Wind from NE
Wind: NE 13 mph , 20 km/h, Gust: 20 mph , 31 km/h
Temperature: 27°F , -3°C
Wind Chill: 16°F , -9°C
Dew Point: 23°F , -5°C
Humidity: 86%
Barometer: 30.22 inHg , 1023.4 hPa
Summary: Light snow, Mist
Clouds: Overcast
Visibility: 1 mile , 2 km
Cloud details: Overcast 400 ft
2018/11/15 22:56 KHPN 152256Z 05011G17KT 1SM R16/5500VP6000FT -SN BR VV004 M03/M05 A3022 RMK AO2 SLP243 P0014 T10331050
 
KSWF - Newburgh/Stewart, New York, USA
Distance from station: W 45mi, 72km
Updated: Thu, 15-Nov-2018 5:45pm EST
Snow, Overcast
Snow, Overcast
 Wind from ENE
Wind: ENE 9 mph , 15 km/h
Temperature: 25°F , -4°C
Wind Chill: 16°F , -9°C
Dew Point: 25°F , -4°C
Humidity: 100%
Barometer: 30.28 inHg , 1025.4 hPa
Summary: Snow
Clouds: Overcast
Visibility: 1/2 mile , 0.8 km
Cloud details: Overcast 200 ft
2018/11/15 22:45 KSWF 152245Z 06008KT 1/2SM R09/2200FT SN OVC002 M04/M04 A3028
KBAF - Westfield, Massachusetts, USA
Distance from station: NNE 50mi, 80km
Updated: Thu, 15-Nov-2018 6:33pm EST
Light snow, Overcast
Light snow, Overcast
 Wind from NE
Wind: NE 3 mph , 6 km/h
Temperature: 25°F , -4°C
Dew Point: 19°F , -7°C
Humidity: 80%
Barometer: 30.35 inHg , 1027.8 hPa
Summary: Light Snow
Clouds: Overcast
Visibility: 3/4 mile , 1.2 km
Cloud details: Overcast 1200 ft
2018/11/15 23:33 KBAF 152333Z 04003KT 3/4SM R20/4500VP6000FT -SN VV012 M04/M07 A3035 RMK AO2 SNB07 P0000 T10391067